sensor_id;sensor_type;location;lat;lon;timestamp;P1;durP1;ratioP1;P2;durP2;ratioP2
48925;SDS011;39838;59.938;30.642;2022-09-03T00:01:03;8.15;;;4.10;;
48925;SDS011;39838;59.938;30.642;2022-09-03T00:03:36;7.15;;;3.78;;
48925;SDS011;39838;59.938;30.642;2022-09-03T00:06:09;8.60;;;3.65;;
48925;SDS011;39838;59.938;30.642;2022-09-03T00:08:42;6.13;;;3.67;;
48925;SDS011;39838;59.938;30.642;2022-09-03T00:11:17;8.05;;;3.60;;
48925;SDS011;39838;59.938;30.642;2022-09-03T00:13:49;6.00;;;3.70;;
48925;SDS011;39838;59.938;30.642;2022-09-03T00:18:53;9.73;;;3.92;;
48925;SDS011;39838;59.938;30.642;2022-09-03T00:21:27;7.40;;;3.90;;
48925;SDS011;39838;59.938;30.642;2022-09-03T00:24:03;7.38;;;3.72;;
48925;SDS011;39838;59.938;30.642;2022-09-03T00:26:35;7.18;;;3.63;;
48925;SDS011;39838;59.938;30.642;2022-09-03T00:29:05;6.13;;;3.70;;
48925;SDS011;39838;59.938;30.642;2022-09-03T00:31:37;5.70;;;3.80;;
48925;SDS011;39838;59.938;30.642;2022-09-03T00:34:10;6.30;;;3.95;;
48925;SDS011;39838;59.938;30.642;2022-09-03T00:36:43;6.40;;;3.90;;
48925;SDS011;39838;59.938;30.642;2022-09-03T00:39:11;8.18;;;4.22;;
48925;SDS011;39838;59.938;30.642;2022-09-03T00:41:47;6.03;;;3.80;;
48925;SDS011;39838;59.938;30.642;2022-09-03T00:44:44;7.00;;;3.97;;
48925;SDS011;39838;59.938;30.642;2022-09-03T00:47:23;6.30;;;4.00;;
48925;SDS011;39838;59.938;30.642;2022-09-03T00:49:59;5.30;;;3.47;;
48925;SDS011;39838;59.938;30.642;2022-09-03T00:52:37;6.18;;;3.97;;
48925;SDS011;39838;59.938;30.642;2022-09-03T00:55:12;6.90;;;3.78;;
48925;SDS011;39838;59.938;30.642;2022-09-03T00:57:53;8.52;;;4.25;;
48925;SDS011;39838;59.938;30.642;2022-09-03T01:00:32;6.28;;;3.70;;
48925;SDS011;39838;59.938;30.642;2022-09-03T01:03:03;6.57;;;3.95;;
48925;SDS011;39838;59.938;30.642;2022-09-03T01:05:40;7.55;;;4.07;;
48925;SDS011;39838;59.938;30.642;2022-09-03T01:08:15;6.65;;;3.83;;
48925;SDS011;39838;59.938;30.642;2022-09-03T01:11:02;5.90;;;3.72;;
48925;SDS011;39838;59.938;30.642;2022-09-03T01:13:39;10.00;;;3.90;;
48925;SDS011;39838;59.938;30.642;2022-09-03T01:16:12;7.47;;;4.03;;
48925;SDS011;39838;59.938;30.642;2022-09-03T01:18:49;6.40;;;3.83;;
48925;SDS011;39838;59.938;30.642;2022-09-03T01:21:37;6.55;;;4.20;;
48925;SDS011;39838;59.938;30.642;2022-09-03T01:24:29;8.13;;;4.22;;
48925;SDS011;39838;59.938;30.642;2022-09-03T01:27:16;7.40;;;3.88;;
48925;SDS011;39838;59.938;30.642;2022-09-03T01:29:59;6.88;;;3.80;;
48925;SDS011;39838;59.938;30.642;2022-09-03T01:32:32;7.43;;;4.43;;
48925;SDS011;39838;59.938;30.642;2022-09-03T01:35:09;12.50;;;4.18;;
48925;SDS011;39838;59.938;30.642;2022-09-03T01:37:46;8.55;;;4.53;;
48925;SDS011;39838;59.938;30.642;2022-09-03T01:40:27;12.07;;;4.43;;
48925;SDS011;39838;59.938;30.642;2022-09-03T01:43:08;8.18;;;3.83;;
48925;SDS011;39838;59.938;30.642;2022-09-03T01:45:52;10.38;;;3.78;;
48925;SDS011;39838;59.938;30.642;2022-09-03T01:48:28;5.75;;;3.80;;
48925;SDS011;39838;59.938;30.642;2022-09-03T01:51:02;8.85;;;3.83;;
48925;SDS011;39838;59.938;30.642;2022-09-03T01:53:40;10.02;;;4.05;;
48925;SDS011;39838;59.938;30.642;2022-09-03T01:56:26;6.72;;;3.45;;
48925;SDS011;39838;59.938;30.642;2022-09-03T01:59:00;9.50;;;3.70;;
48925;SDS011;39838;59.938;30.642;2022-09-03T02:01:36;6.65;;;3.60;;
48925;SDS011;39838;59.938;30.642;2022-09-03T02:04:13;5.60;;;3.67;;
48925;SDS011;39838;59.938;30.642;2022-09-03T02:06:44;7.18;;;4.10;;
48925;SDS011;39838;59.938;30.642;2022-09-03T02:09:13;8.27;;;4.07;;
48925;SDS011;39838;59.938;30.642;2022-09-03T02:11:40;8.68;;;3.90;;
48925;SDS011;39838;59.938;30.642;2022-09-03T02:14:11;7.85;;;3.80;;
48925;SDS011;39838;59.938;30.642;2022-09-03T02:16:40;7.40;;;3.72;;
48925;SDS011;39838;59.938;30.642;2022-09-03T02:19:10;9.07;;;4.30;;
48925;SDS011;39838;59.938;30.642;2022-09-03T02:21:41;5.80;;;3.65;;
48925;SDS011;39838;59.938;30.642;2022-09-03T02:24:14;7.28;;;3.80;;
48925;SDS011;39838;59.938;30.642;2022-09-03T02:26:41;7.40;;;4.00;;
48925;SDS011;39838;59.938;30.642;2022-09-03T02:29:08;7.85;;;3.80;;
48925;SDS011;39838;59.938;30.642;2022-09-03T02:31:36;6.38;;;4.10;;
48925;SDS011;39838;59.938;30.642;2022-09-03T02:34:04;7.68;;;3.80;;
48925;SDS011;39838;59.938;30.642;2022-09-03T02:36:33;7.00;;;3.83;;
48925;SDS011;39838;59.938;30.642;2022-09-03T02:39:02;8.40;;;4.93;;
48925;SDS011;39838;59.938;30.642;2022-09-03T02:41:31;8.10;;;3.95;;
48925;SDS011;39838;59.938;30.642;2022-09-03T02:44:00;8.50;;;4.05;;
48925;SDS011;39838;59.938;30.642;2022-09-03T02:46:31;6.82;;;3.83;;
48925;SDS011;39838;59.938;30.642;2022-09-03T02:49:05;11.82;;;3.67;;
48925;SDS011;39838;59.938;30.642;2022-09-03T02:51:34;11.73;;;3.60;;
48925;SDS011;39838;59.938;30.642;2022-09-03T02:54:02;6.93;;;3.75;;
48925;SDS011;39838;59.938;30.642;2022-09-03T02:56:30;5.97;;;3.60;;
48925;SDS011;39838;59.938;30.642;2022-09-03T02:58:57;6.78;;;3.67;;
48925;SDS011;39838;59.938;30.642;2022-09-03T03:01:24;12.07;;;4.20;;
48925;SDS011;39838;59.938;30.642;2022-09-03T03:03:52;9.93;;;4.38;;
48925;SDS011;39838;59.938;30.642;2022-09-03T03:06:20;11.27;;;4.80;;
48925;SDS011;39838;59.938;30.642;2022-09-03T03:08:48;10.32;;;4.47;;
48925;SDS011;39838;59.938;30.642;2022-09-03T03:11:16;16.77;;;4.90;;
48925;SDS011;39838;59.938;30.642;2022-09-03T03:13:45;11.45;;;4.95;;
48925;SDS011;39838;59.938;30.642;2022-09-03T03:16:13;9.20;;;5.03;;
48925;SDS011;39838;59.938;30.642;2022-09-03T03:18:41;10.57;;;5.10;;
48925;SDS011;39838;59.938;30.642;2022-09-03T03:21:11;10.48;;;5.57;;
48925;SDS011;39838;59.938;30.642;2022-09-03T03:23:41;9.40;;;5.20;;
48925;SDS011;39838;59.938;30.642;2022-09-03T03:26:09;7.38;;;4.68;;
48925;SDS011;39838;59.938;30.642;2022-09-03T03:28:37;11.77;;;5.03;;
48925;SDS011;39838;59.938;30.642;2022-09-03T03:31:05;10.13;;;4.65;;
48925;SDS011;39838;59.938;30.642;2022-09-03T03:33:33;9.00;;;4.70;;
48925;SDS011;39838;59.938;30.642;2022-09-03T03:36:04;11.60;;;4.78;;
48925;SDS011;39838;59.938;30.642;2022-09-03T03:38:32;11.40;;;4.90;;
48925;SDS011;39838;59.938;30.642;2022-09-03T03:41:06;11.65;;;4.38;;
48925;SDS011;39838;59.938;30.642;2022-09-03T03:43:34;11.77;;;4.68;;
48925;SDS011;39838;59.938;30.642;2022-09-03T03:46:01;10.55;;;4.78;;
48925;SDS011;39838;59.938;30.642;2022-09-03T03:48:29;10.38;;;5.13;;
48925;SDS011;39838;59.938;30.642;2022-09-03T03:50:59;10.32;;;5.22;;
48925;SDS011;39838;59.938;30.642;2022-09-03T03:53:29;10.68;;;4.70;;
48925;SDS011;39838;59.938;30.642;2022-09-03T03:55:56;9.25;;;4.53;;
48925;SDS011;39838;59.938;30.642;2022-09-03T03:58:26;9.45;;;4.68;;
48925;SDS011;39838;59.938;30.642;2022-09-03T04:00:53;8.57;;;4.88;;
48925;SDS011;39838;59.938;30.642;2022-09-03T04:03:20;9.05;;;5.15;;
48925;SDS011;39838;59.938;30.642;2022-09-03T04:05:54;10.57;;;4.95;;
48925;SDS011;39838;59.938;30.642;2022-09-03T04:08:23;6.72;;;4.55;;
48925;SDS011;39838;59.938;30.642;2022-09-03T04:10:50;9.52;;;4.30;;
48925;SDS011;39838;59.938;30.642;2022-09-03T04:13:17;8.73;;;4.72;;
48925;SDS011;39838;59.938;30.642;2022-09-03T04:15:46;8.43;;;4.50;;
48925;SDS011;39838;59.938;30.642;2022-09-03T04:18:13;9.60;;;4.93;;
48925;SDS011;39838;59.938;30.642;2022-09-03T04:20:40;9.82;;;4.57;;
48925;SDS011;39838;59.938;30.642;2022-09-03T04:23:07;8.82;;;4.35;;
48925;SDS011;39838;59.938;30.642;2022-09-03T04:25:35;8.85;;;4.93;;
48925;SDS011;39838;59.938;30.642;2022-09-03T04:28:02;8.85;;;5.10;;
48925;SDS011;39838;59.938;30.642;2022-09-03T04:30:29;7.85;;;4.78;;
48925;SDS011;39838;59.938;30.642;2022-09-03T04:32:58;8.57;;;4.88;;
48925;SDS011;39838;59.938;30.642;2022-09-03T04:35:25;7.97;;;5.13;;
48925;SDS011;39838;59.938;30.642;2022-09-03T04:37:57;8.10;;;4.90;;
48925;SDS011;39838;59.938;30.642;2022-09-03T04:40:25;12.60;;;5.25;;
48925;SDS011;39838;59.938;30.642;2022-09-03T04:42:55;8.02;;;4.72;;
48925;SDS011;39838;59.938;30.642;2022-09-03T04:45:24;8.75;;;5.20;;
48925;SDS011;39838;59.938;30.642;2022-09-03T04:47:57;9.63;;;5.72;;
48925;SDS011;39838;59.938;30.642;2022-09-03T04:50:26;10.00;;;6.00;;
48925;SDS011;39838;59.938;30.642;2022-09-03T04:52:54;10.88;;;5.85;;
48925;SDS011;39838;59.938;30.642;2022-09-03T04:55:22;9.40;;;5.70;;
48925;SDS011;39838;59.938;30.642;2022-09-03T04:57:49;9.60;;;5.60;;
48925;SDS011;39838;59.938;30.642;2022-09-03T05:00:17;9.45;;;5.72;;
48925;SDS011;39838;59.938;30.642;2022-09-03T05:02:44;9.73;;;5.70;;
48925;SDS011;39838;59.938;30.642;2022-09-03T05:05:15;9.00;;;5.88;;
48925;SDS011;39838;59.938;30.642;2022-09-03T05:07:42;10.70;;;5.90;;
48925;SDS011;39838;59.938;30.642;2022-09-03T05:10:09;13.55;;;5.93;;
48925;SDS011;39838;59.938;30.642;2022-09-03T05:12:40;8.90;;;5.80;;
48925;SDS011;39838;59.938;30.642;2022-09-03T05:15:08;11.30;;;6.22;;
48925;SDS011;39838;59.938;30.642;2022-09-03T05:17:35;10.27;;;6.05;;
48925;SDS011;39838;59.938;30.642;2022-09-03T05:20:03;9.70;;;6.15;;
48925;SDS011;39838;59.938;30.642;2022-09-03T05:22:34;11.27;;;6.38;;
48925;SDS011;39838;59.938;30.642;2022-09-03T05:25:01;11.20;;;6.68;;
48925;SDS011;39838;59.938;30.642;2022-09-03T05:27:29;15.32;;;7.00;;
48925;SDS011;39838;59.938;30.642;2022-09-03T05:29:57;15.73;;;6.75;;
48925;SDS011;39838;59.938;30.642;2022-09-03T05:32:24;13.07;;;6.45;;
48925;SDS011;39838;59.938;30.642;2022-09-03T05:34:55;9.88;;;6.70;;
48925;SDS011;39838;59.938;30.642;2022-09-03T05:37:23;11.75;;;7.03;;
48925;SDS011;39838;59.938;30.642;2022-09-03T05:39:51;12.73;;;7.60;;
48925;SDS011;39838;59.938;30.642;2022-09-03T05:42:19;16.63;;;8.55;;
48925;SDS011;39838;59.938;30.642;2022-09-03T05:44:46;15.50;;;8.90;;
48925;SDS011;39838;59.938;30.642;2022-09-03T05:47:14;12.77;;;8.95;;
48925;SDS011;39838;59.938;30.642;2022-09-03T05:49:41;11.68;;;7.97;;
48925;SDS011;39838;59.938;30.642;2022-09-03T05:52:08;11.95;;;7.63;;
48925;SDS011;39838;59.938;30.642;2022-09-03T05:54:35;12.18;;;6.43;;
48925;SDS011;39838;59.938;30.642;2022-09-03T05:57:05;10.95;;;6.00;;
48925;SDS011;39838;59.938;30.642;2022-09-03T05:59:32;9.20;;;5.57;;
48925;SDS011;39838;59.938;30.642;2022-09-03T06:01:59;9.52;;;4.40;;
48925;SDS011;39838;59.938;30.642;2022-09-03T06:04:26;9.23;;;4.85;;
48925;SDS011;39838;59.938;30.642;2022-09-03T06:06:53;10.95;;;4.82;;
48925;SDS011;39838;59.938;30.642;2022-09-03T06:09:21;8.93;;;4.65;;
48925;SDS011;39838;59.938;30.642;2022-09-03T06:11:49;8.00;;;4.20;;
48925;SDS011;39838;59.938;30.642;2022-09-03T06:14:17;6.03;;;3.50;;
48925;SDS011;39838;59.938;30.642;2022-09-03T06:16:46;5.95;;;3.40;;
48925;SDS011;39838;59.938;30.642;2022-09-03T06:19:14;5.78;;;3.30;;
48925;SDS011;39838;59.938;30.642;2022-09-03T06:21:42;5.15;;;3.20;;
48925;SDS011;39838;59.938;30.642;2022-09-03T06:24:10;6.57;;;3.38;;
48925;SDS011;39838;59.938;30.642;2022-09-03T06:26:39;5.68;;;3.13;;
48925;SDS011;39838;59.938;30.642;2022-09-03T06:29:06;6.88;;;3.10;;
48925;SDS011;39838;59.938;30.642;2022-09-03T06:31:34;6.10;;;2.72;;
48925;SDS011;39838;59.938;30.642;2022-09-03T06:34:02;8.32;;;2.97;;
48925;SDS011;39838;59.938;30.642;2022-09-03T06:36:30;6.88;;;3.00;;
48925;SDS011;39838;59.938;30.642;2022-09-03T06:38:57;9.05;;;3.03;;
48925;SDS011;39838;59.938;30.642;2022-09-03T06:41:25;4.72;;;3.28;;
48925;SDS011;39838;59.938;30.642;2022-09-03T06:43:56;5.65;;;2.85;;
48925;SDS011;39838;59.938;30.642;2022-09-03T06:46:27;4.53;;;3.00;;
48925;SDS011;39838;59.938;30.642;2022-09-03T06:48:57;4.97;;;2.72;;
48925;SDS011;39838;59.938;30.642;2022-09-03T06:51:25;3.58;;;2.47;;
48925;SDS011;39838;59.938;30.642;2022-09-03T06:53:53;4.93;;;2.55;;
48925;SDS011;39838;59.938;30.642;2022-09-03T06:56:25;4.25;;;2.53;;
48925;SDS011;39838;59.938;30.642;2022-09-03T06:58:53;3.85;;;2.70;;
48925;SDS011;39838;59.938;30.642;2022-09-03T07:01:21;3.83;;;2.22;;
48925;SDS011;39838;59.938;30.642;2022-09-03T07:03:51;4.50;;;2.80;;
48925;SDS011;39838;59.938;30.642;2022-09-03T07:06:23;5.70;;;3.40;;
48925;SDS011;39838;59.938;30.642;2022-09-03T07:08:51;5.50;;;2.90;;
48925;SDS011;39838;59.938;30.642;2022-09-03T07:11:20;3.90;;;2.55;;
48925;SDS011;39838;59.938;30.642;2022-09-03T07:13:50;2.13;;;1.77;;
48925;SDS011;39838;59.938;30.642;2022-09-03T07:16:20;4.53;;;2.50;;
48925;SDS011;39838;59.938;30.642;2022-09-03T07:18:49;4.18;;;2.45;;
48925;SDS011;39838;59.938;30.642;2022-09-03T07:21:18;6.07;;;2.90;;
48925;SDS011;39838;59.938;30.642;2022-09-03T07:23:47;4.55;;;2.65;;
48925;SDS011;39838;59.938;30.642;2022-09-03T07:26:17;3.42;;;2.50;;
48925;SDS011;39838;59.938;30.642;2022-09-03T07:28:46;4.55;;;2.42;;
48925;SDS011;39838;59.938;30.642;2022-09-03T07:31:14;3.60;;;2.33;;
48925;SDS011;39838;59.938;30.642;2022-09-03T07:33:44;4.97;;;2.75;;
48925;SDS011;39838;59.938;30.642;2022-09-03T07:36:12;3.58;;;2.45;;
48925;SDS011;39838;59.938;30.642;2022-09-03T07:38:41;5.07;;;2.95;;
48925;SDS011;39838;59.938;30.642;2022-09-03T07:41:11;6.10;;;2.90;;
48925;SDS011;39838;59.938;30.642;2022-09-03T07:43:39;4.93;;;3.00;;
48925;SDS011;39838;59.938;30.642;2022-09-03T07:46:08;4.35;;;2.40;;
48925;SDS011;39838;59.938;30.642;2022-09-03T07:48:37;5.13;;;2.70;;
48925;SDS011;39838;59.938;30.642;2022-09-03T07:51:05;5.28;;;2.60;;
48925;SDS011;39838;59.938;30.642;2022-09-03T07:53:33;6.20;;;2.65;;
48925;SDS011;39838;59.938;30.642;2022-09-03T07:56:01;5.97;;;3.10;;
48925;SDS011;39838;59.938;30.642;2022-09-03T07:58:31;5.15;;;3.28;;
48925;SDS011;39838;59.938;30.642;2022-09-03T08:01:03;7.15;;;3.10;;
48925;SDS011;39838;59.938;30.642;2022-09-03T08:03:32;4.60;;;3.03;;
48925;SDS011;39838;59.938;30.642;2022-09-03T08:06:00;4.15;;;2.58;;
48925;SDS011;39838;59.938;30.642;2022-09-03T08:08:28;3.47;;;2.50;;
48925;SDS011;39838;59.938;30.642;2022-09-03T08:11:02;7.50;;;2.50;;
48925;SDS011;39838;59.938;30.642;2022-09-03T08:13:37;4.55;;;2.85;;
48925;SDS011;39838;59.938;30.642;2022-09-03T08:16:05;4.45;;;2.97;;
48925;SDS011;39838;59.938;30.642;2022-09-03T08:18:33;8.27;;;3.88;;
48925;SDS011;39838;59.938;30.642;2022-09-03T08:21:04;5.70;;;3.35;;
48925;SDS011;39838;59.938;30.642;2022-09-03T08:23:33;7.40;;;3.58;;
48925;SDS011;39838;59.938;30.642;2022-09-03T08:26:02;4.63;;;2.72;;
48925;SDS011;39838;59.938;30.642;2022-09-03T08:28:31;5.10;;;3.15;;
48925;SDS011;39838;59.938;30.642;2022-09-03T08:31:04;5.47;;;2.60;;
48925;SDS011;39838;59.938;30.642;2022-09-03T08:33:34;4.57;;;2.80;;
48925;SDS011;39838;59.938;30.642;2022-09-03T08:36:07;3.72;;;2.40;;
48925;SDS011;39838;59.938;30.642;2022-09-03T08:38:37;8.45;;;2.83;;
48925;SDS011;39838;59.938;30.642;2022-09-03T08:41:05;5.20;;;3.25;;
48925;SDS011;39838;59.938;30.642;2022-09-03T08:43:49;5.68;;;2.60;;
48925;SDS011;39838;59.938;30.642;2022-09-03T08:46:26;3.58;;;2.33;;
48925;SDS011;39838;59.938;30.642;2022-09-03T08:49:05;4.93;;;2.50;;
48925;SDS011;39838;59.938;30.642;2022-09-03T08:51:36;4.07;;;2.58;;
48925;SDS011;39838;59.938;30.642;2022-09-03T08:54:04;4.43;;;2.67;;
48925;SDS011;39838;59.938;30.642;2022-09-03T08:56:35;5.15;;;2.47;;
48925;SDS011;39838;59.938;30.642;2022-09-03T08:59:05;3.65;;;2.20;;
48925;SDS011;39838;59.938;30.642;2022-09-03T09:01:35;3.03;;;2.15;;
48925;SDS011;39838;59.938;30.642;2022-09-03T09:04:17;5.43;;;3.25;;
48925;SDS011;39838;59.938;30.642;2022-09-03T09:06:51;8.48;;;3.90;;
48925;SDS011;39838;59.938;30.642;2022-09-03T09:09:27;5.80;;;3.00;;
48925;SDS011;39838;59.938;30.642;2022-09-03T09:12:03;5.28;;;2.80;;
48925;SDS011;39838;59.938;30.642;2022-09-03T09:14:44;4.10;;;2.60;;
48925;SDS011;39838;59.938;30.642;2022-09-03T09:17:21;6.25;;;2.80;;
48925;SDS011;39838;59.938;30.642;2022-09-03T09:20:00;6.28;;;2.72;;
48925;SDS011;39838;59.938;30.642;2022-09-03T09:22:36;4.20;;;2.70;;
48925;SDS011;39838;59.938;30.642;2022-09-03T09:25:07;4.32;;;2.70;;
48925;SDS011;39838;59.938;30.642;2022-09-03T09:27:40;4.07;;;2.50;;
48925;SDS011;39838;59.938;30.642;2022-09-03T09:30:16;4.22;;;2.83;;
48925;SDS011;39838;59.938;30.642;2022-09-03T09:32:46;6.07;;;3.15;;
48925;SDS011;39838;59.938;30.642;2022-09-03T09:35:13;7.75;;;3.95;;
48925;SDS011;39838;59.938;30.642;2022-09-03T09:37:46;5.15;;;2.92;;
48925;SDS011;39838;59.938;30.642;2022-09-03T09:40:21;4.10;;;2.30;;
48925;SDS011;39838;59.938;30.642;2022-09-03T09:42:51;3.40;;;2.33;;
48925;SDS011;39838;59.938;30.642;2022-09-03T09:45:28;3.15;;;2.33;;
48925;SDS011;39838;59.938;30.642;2022-09-03T09:47:59;4.13;;;2.50;;
48925;SDS011;39838;59.938;30.642;2022-09-03T09:50:28;4.10;;;2.20;;
48925;SDS011;39838;59.938;30.642;2022-09-03T09:52:59;3.38;;;2.45;;
48925;SDS011;39838;59.938;30.642;2022-09-03T09:55:28;4.22;;;2.67;;
48925;SDS011;39838;59.938;30.642;2022-09-03T09:58:03;3.72;;;2.67;;
48925;SDS011;39838;59.938;30.642;2022-09-03T10:00:33;4.30;;;2.53;;
48925;SDS011;39838;59.938;30.642;2022-09-03T10:03:04;3.55;;;2.35;;
48925;SDS011;39838;59.938;30.642;2022-09-03T10:05:37;5.05;;;2.63;;
48925;SDS011;39838;59.938;30.642;2022-09-03T10:08:05;7.03;;;2.15;;
48925;SDS011;39838;59.938;30.642;2022-09-03T10:10:44;4.78;;;2.53;;
48925;SDS011;39838;59.938;30.642;2022-09-03T10:13:16;5.13;;;3.08;;
48925;SDS011;39838;59.938;30.642;2022-09-03T10:15:47;4.18;;;2.67;;
48925;SDS011;39838;59.938;30.642;2022-09-03T10:18:21;5.07;;;2.53;;
48925;SDS011;39838;59.938;30.642;2022-09-03T10:21:00;4.53;;;2.67;;
48925;SDS011;39838;59.938;30.642;2022-09-03T10:23:32;4.18;;;2.58;;
48925;SDS011;39838;59.938;30.642;2022-09-03T10:26:16;3.83;;;2.33;;
48925;SDS011;39838;59.938;30.642;2022-09-03T10:28:55;4.30;;;2.63;;
48925;SDS011;39838;59.938;30.642;2022-09-03T10:31:31;4.93;;;2.70;;
48925;SDS011;39838;59.938;30.642;2022-09-03T10:34:11;5.25;;;2.60;;
48925;SDS011;39838;59.938;30.642;2022-09-03T10:36:46;4.20;;;2.45;;
48925;SDS011;39838;59.938;30.642;2022-09-03T10:39:24;4.57;;;2.90;;
48925;SDS011;39838;59.938;30.642;2022-09-03T10:42:04;3.75;;;2.30;;
48925;SDS011;39838;59.938;30.642;2022-09-03T10:44:52;3.60;;;2.25;;
48925;SDS011;39838;59.938;30.642;2022-09-03T10:47:36;3.03;;;2.45;;
48925;SDS011;39838;59.938;30.642;2022-09-03T10:50:26;4.03;;;2.22;;
48925;SDS011;39838;59.938;30.642;2022-09-03T10:53:01;4.55;;;2.47;;
48925;SDS011;39838;59.938;30.642;2022-09-03T10:55:39;7.18;;;2.70;;
48925;SDS011;39838;59.938;30.642;2022-09-03T10:58:18;4.03;;;2.63;;
48925;SDS011;39838;59.938;30.642;2022-09-03T11:00:58;4.75;;;3.10;;
48925;SDS011;39838;59.938;30.642;2022-09-03T11:03:35;3.97;;;2.60;;
48925;SDS011;39838;59.938;30.642;2022-09-03T11:06:12;5.68;;;2.20;;
48925;SDS011;39838;59.938;30.642;2022-09-03T11:08:45;4.38;;;2.50;;
48925;SDS011;39838;59.938;30.642;2022-09-03T11:13:51;4.47;;;2.50;;
48925;SDS011;39838;59.938;30.642;2022-09-03T11:16:24;4.10;;;2.30;;
48925;SDS011;39838;59.938;30.642;2022-09-03T11:18:57;3.88;;;2.60;;
48925;SDS011;39838;59.938;30.642;2022-09-03T11:21:31;5.45;;;2.50;;
48925;SDS011;39838;59.938;30.642;2022-09-03T11:24:04;4.32;;;2.40;;
48925;SDS011;39838;59.938;30.642;2022-09-03T11:26:36;2.83;;;2.20;;
48925;SDS011;39838;59.938;30.642;2022-09-03T11:29:06;3.75;;;2.58;;
48925;SDS011;39838;59.938;30.642;2022-09-03T11:31:44;3.67;;;2.25;;
48925;SDS011;39838;59.938;30.642;2022-09-03T11:34:26;5.80;;;2.60;;
48925;SDS011;39838;59.938;30.642;2022-09-03T11:37:06;3.47;;;2.60;;
48925;SDS011;39838;59.938;30.642;2022-09-03T11:42:11;6.45;;;2.38;;
48925;SDS011;39838;59.938;30.642;2022-09-03T11:44:49;3.45;;;2.30;;
48925;SDS011;39838;59.938;30.642;2022-09-03T11:47:20;4.75;;;2.30;;
48925;SDS011;39838;59.938;30.642;2022-09-03T11:49:49;3.22;;;2.40;;
48925;SDS011;39838;59.938;30.642;2022-09-03T11:52:26;5.10;;;2.72;;
48925;SDS011;39838;59.938;30.642;2022-09-03T11:54:54;4.85;;;2.42;;
48925;SDS011;39838;59.938;30.642;2022-09-03T11:57:22;2.95;;;2.08;;
48925;SDS011;39838;59.938;30.642;2022-09-03T11:59:53;4.47;;;2.65;;
48925;SDS011;39838;59.938;30.642;2022-09-03T12:02:34;5.28;;;2.83;;
48925;SDS011;39838;59.938;30.642;2022-09-03T12:05:12;3.67;;;2.50;;
48925;SDS011;39838;59.938;30.642;2022-09-03T12:10:45;3.35;;;2.35;;
48925;SDS011;39838;59.938;30.642;2022-09-03T12:13:28;3.70;;;2.60;;
48925;SDS011;39838;59.938;30.642;2022-09-03T12:19:12;4.88;;;3.10;;
48925;SDS011;39838;59.938;30.642;2022-09-03T12:21:47;4.13;;;2.60;;
48925;SDS011;39838;59.938;30.642;2022-09-03T12:24:16;3.95;;;2.45;;
48925;SDS011;39838;59.938;30.642;2022-09-03T12:26:44;3.55;;;2.28;;
48925;SDS011;39838;59.938;30.642;2022-09-03T12:29:22;3.55;;;2.35;;
48925;SDS011;39838;59.938;30.642;2022-09-03T12:31:51;3.22;;;2.40;;
48925;SDS011;39838;59.938;30.642;2022-09-03T12:34:20;5.03;;;2.53;;
48925;SDS011;39838;59.938;30.642;2022-09-03T12:36:50;3.70;;;2.65;;
48925;SDS011;39838;59.938;30.642;2022-09-03T12:39:21;6.10;;;2.70;;
48925;SDS011;39838;59.938;30.642;2022-09-03T12:41:52;4.75;;;2.30;;
48925;SDS011;39838;59.938;30.642;2022-09-03T12:44:25;4.85;;;2.00;;
48925;SDS011;39838;59.938;30.642;2022-09-03T12:47:01;1.75;;;1.58;;
48925;SDS011;39838;59.938;30.642;2022-09-03T12:49:34;3.10;;;1.63;;
48925;SDS011;39838;59.938;30.642;2022-09-03T12:52:03;5.95;;;1.92;;
48925;SDS011;39838;59.938;30.642;2022-09-03T12:54:38;3.25;;;1.98;;
48925;SDS011;39838;59.938;30.642;2022-09-03T12:57:09;2.83;;;1.80;;
48925;SDS011;39838;59.938;30.642;2022-09-03T12:59:38;2.30;;;1.77;;
48925;SDS011;39838;59.938;30.642;2022-09-03T13:02:10;2.58;;;2.05;;
48925;SDS011;39838;59.938;30.642;2022-09-03T13:04:42;3.53;;;2.00;;
48925;SDS011;39838;59.938;30.642;2022-09-03T13:07:12;4.03;;;2.30;;
48925;SDS011;39838;59.938;30.642;2022-09-03T13:09:49;5.20;;;2.65;;
48925;SDS011;39838;59.938;30.642;2022-09-03T13:12:21;3.65;;;2.25;;
48925;SDS011;39838;59.938;30.642;2022-09-03T13:14:54;4.75;;;2.50;;
48925;SDS011;39838;59.938;30.642;2022-09-03T13:17:34;4.32;;;2.58;;
48925;SDS011;39838;59.938;30.642;2022-09-03T13:20:21;3.22;;;2.28;;
48925;SDS011;39838;59.938;30.642;2022-09-03T13:23:08;5.82;;;2.38;;
48925;SDS011;39838;59.938;30.642;2022-09-03T13:25:52;3.03;;;2.25;;
48925;SDS011;39838;59.938;30.642;2022-09-03T13:28:34;4.07;;;2.25;;
48925;SDS011;39838;59.938;30.642;2022-09-03T13:31:20;3.03;;;2.15;;
48925;SDS011;39838;59.938;30.642;2022-09-03T13:33:53;6.68;;;2.85;;
48925;SDS011;39838;59.938;30.642;2022-09-03T13:36:27;5.35;;;3.40;;
48925;SDS011;39838;59.938;30.642;2022-09-03T13:39:00;5.43;;;3.03;;
48925;SDS011;39838;59.938;30.642;2022-09-03T13:41:33;4.53;;;2.97;;
48925;SDS011;39838;59.938;30.642;2022-09-03T13:44:06;4.75;;;2.30;;
48925;SDS011;39838;59.938;30.642;2022-09-03T13:46:41;4.57;;;2.45;;
48925;SDS011;39838;59.938;30.642;2022-09-03T13:49:18;4.13;;;2.13;;
48925;SDS011;39838;59.938;30.642;2022-09-03T13:52:12;4.05;;;2.10;;
48925;SDS011;39838;59.938;30.642;2022-09-03T13:54:48;4.05;;;2.70;;
48925;SDS011;39838;59.938;30.642;2022-09-03T13:57:22;4.97;;;2.72;;
48925;SDS011;39838;59.938;30.642;2022-09-03T13:59:57;4.85;;;2.70;;
48925;SDS011;39838;59.938;30.642;2022-09-03T14:02:31;3.20;;;2.40;;
48925;SDS011;39838;59.938;30.642;2022-09-03T14:05:08;6.85;;;3.65;;
48925;SDS011;39838;59.938;30.642;2022-09-03T14:07:51;5.25;;;3.13;;
48925;SDS011;39838;59.938;30.642;2022-09-03T14:13:07;5.40;;;2.45;;
48925;SDS011;39838;59.938;30.642;2022-09-03T14:15:42;4.60;;;2.40;;
48925;SDS011;39838;59.938;30.642;2022-09-03T14:18:15;5.45;;;3.30;;
48925;SDS011;39838;59.938;30.642;2022-09-03T14:20:58;9.75;;;3.67;;
48925;SDS011;39838;59.938;30.642;2022-09-03T14:23:32;4.80;;;2.67;;
48925;SDS011;39838;59.938;30.642;2022-09-03T14:26:13;3.53;;;2.20;;
48925;SDS011;39838;59.938;30.642;2022-09-03T14:28:47;6.72;;;1.98;;
48925;SDS011;39838;59.938;30.642;2022-09-03T14:31:25;2.58;;;1.90;;
48925;SDS011;39838;59.938;30.642;2022-09-03T14:34:07;3.28;;;1.92;;
48925;SDS011;39838;59.938;30.642;2022-09-03T14:36:48;3.00;;;2.00;;
48925;SDS011;39838;59.938;30.642;2022-09-03T14:39:27;3.58;;;2.38;;
48925;SDS011;39838;59.938;30.642;2022-09-03T14:42:07;5.30;;;3.25;;
48925;SDS011;39838;59.938;30.642;2022-09-03T14:44:59;5.03;;;3.40;;
48925;SDS011;39838;59.938;30.642;2022-09-03T14:47:45;8.15;;;2.72;;
48925;SDS011;39838;59.938;30.642;2022-09-03T14:50:27;7.25;;;2.80;;
48925;SDS011;39838;59.938;30.642;2022-09-03T14:53:14;2.88;;;1.90;;
48925;SDS011;39838;59.938;30.642;2022-09-03T14:55:56;3.13;;;2.22;;
48925;SDS011;39838;59.938;30.642;2022-09-03T14:58:38;3.38;;;2.05;;
48925;SDS011;39838;59.938;30.642;2022-09-03T15:01:15;3.97;;;1.85;;
48925;SDS011;39838;59.938;30.642;2022-09-03T15:03:54;6.63;;;2.42;;
48925;SDS011;39838;59.938;30.642;2022-09-03T15:06:45;5.53;;;2.88;;
48925;SDS011;39838;59.938;30.642;2022-09-03T15:09:26;8.00;;;3.20;;
48925;SDS011;39838;59.938;30.642;2022-09-03T15:11:59;3.92;;;2.80;;
48925;SDS011;39838;59.938;30.642;2022-09-03T15:14:34;5.00;;;2.97;;
48925;SDS011;39838;59.938;30.642;2022-09-03T15:17:15;6.03;;;2.33;;
48925;SDS011;39838;59.938;30.642;2022-09-03T15:19:55;4.72;;;2.13;;
48925;SDS011;39838;59.938;30.642;2022-09-03T15:22:33;6.80;;;2.70;;